Time;durP1;ratioP1;P1;durP2;ratioP2;P2;SDS_P1;SDS_P2;PMS_P1;PMS_P2;Temp;Humidity;BMP_temperature;BMP_pressure;BME280_temperature;BME280_humidity;BME280_pressure;Samples;Min_cycle;Max_cycle;Signal;HPM_P1;HPM_P2
2022/12/19 00:02:18;;;;;;;0.80;0.80;;;1.70;99.90;;;;;;4943387;28;20061;-76
2022/12/19 00:04:44;;;;;;;0.70;0.70;;;1.70;99.90;;;;;;4921645;28;20609;-76
2022/12/19 00:07:10;;;;;;;0.80;0.80;;;1.70;99.90;;;;;;4940824;28;20042;-76
2022/12/19 00:09:35;;;;;;;0.80;0.80;;;1.70;99.90;;;;;;4942575;28;21229;-76
2022/12/19 00:12:03;;;;;;;0.80;0.80;;;1.70;99.90;;;;;;4943575;28;20428;-76
2022/12/19 00:14:29;;;;;;;0.80;0.80;;;1.70;99.90;;;;;;4936464;28;20468;-75
2022/12/19 00:16:55;;;;;;;0.80;0.80;;;1.70;99.90;;;;;;4942976;28;20056;-76
2022/12/19 00:19:21;;;;;;;0.80;0.80;;;1.70;99.90;;;;;;4920449;28;20336;-76
2022/12/19 00:21:46;;;;;;;0.70;0.70;;;1.70;99.90;;;;;;4945083;28;20126;-76
2022/12/19 00:24:13;;;;;;;0.70;0.70;;;1.70;99.90;;;;;;4939515;28;21158;-76
2022/12/19 00:26:39;;;;;;;0.70;0.70;;;1.70;99.90;;;;;;4940564;28;20054;-76
2022/12/19 00:29:07;;;;;;;0.80;0.80;;;1.70;99.90;;;;;;4940417;28;20042;-75
2022/12/19 00:31:34;;;;;;;0.70;0.70;;;1.70;99.90;;;;;;4938933;28;20507;-76
2022/12/19 00:34:01;;;;;;;0.75;0.75;;;1.70;99.90;;;;;;4938384;28;20592;-76
2022/12/19 00:36:29;;;;;;;0.80;0.80;;;1.80;99.90;;;;;;4937226;28;20223;-76
2022/12/19 00:38:57;;;;;;;0.80;0.80;;;1.70;99.90;;;;;;4949568;28;20041;-76
2022/12/19 00:41:31;;;;;;;0.80;0.80;;;1.70;99.90;;;;;;4940595;28;20061;-75
2022/12/19 00:44:08;;;;;;;0.80;0.80;;;1.80;99.90;;;;;;4942564;28;20045;-76
2022/12/19 00:46:35;;;;;;;0.80;0.80;;;1.80;99.90;;;;;;4941870;28;20073;-75
2022/12/19 00:49:02;;;;;;;0.70;0.70;;;1.80;99.90;;;;;;4938723;28;20896;-76
2022/12/19 00:51:32;;;;;;;0.70;0.70;;;1.80;99.90;;;;;;4938781;28;20301;-76
2022/12/19 00:53:59;;;;;;;0.75;0.75;;;1.80;99.90;;;;;;4933434;28;20508;-75
2022/12/19 00:56:28;;;;;;;0.70;0.70;;;1.80;99.90;;;;;;4939367;28;20527;-76
2022/12/19 00:58:55;;;;;;;0.70;0.70;;;1.80;99.90;;;;;;4939167;28;20444;-75
2022/12/19 01:01:27;;;;;;;0.80;0.80;;;1.80;99.90;;;;;;4940193;28;20057;-76
2022/12/19 01:03:54;;;;;;;0.70;0.70;;;1.80;99.90;;;;;;4950921;28;20385;-76
2022/12/19 01:06:21;;;;;;;0.80;0.80;;;1.90;99.90;;;;;;4942890;28;20061;-76
2022/12/19 01:08:47;;;;;;;0.70;0.70;;;1.90;99.90;;;;;;4941482;28;20454;-76
2022/12/19 01:11:13;;;;;;;0.80;0.80;;;1.90;99.90;;;;;;4953237;28;20457;-76
2022/12/19 01:13:40;;;;;;;0.70;0.70;;;1.90;99.90;;;;;;4940180;28;20462;-75
2022/12/19 01:16:08;;;;;;;0.70;0.70;;;1.90;99.90;;;;;;4934184;28;20277;-75
2022/12/19 01:18:35;;;;;;;0.80;0.80;;;1.90;99.90;;;;;;4943034;28;20041;-75
2022/12/19 01:21:04;;;;;;;0.70;0.70;;;2.00;99.90;;;;;;4939042;28;20160;-76
2022/12/19 01:23:37;;;;;;;0.70;0.70;;;1.90;99.90;;;;;;4938740;28;20049;-75
2022/12/19 01:26:04;;;;;;;0.80;0.80;;;1.90;99.90;;;;;;4933962;28;20454;-76
2022/12/19 01:28:30;;;;;;;0.80;0.80;;;2.00;99.90;;;;;;4936237;28;20061;-76
2022/12/19 01:30:56;;;;;;;0.70;0.70;;;2.00;99.90;;;;;;4940962;28;20547;-76
2022/12/19 01:33:22;;;;;;;0.70;0.70;;;2.10;99.90;;;;;;4934527;28;20046;-75
2022/12/19 01:35:48;;;;;;;0.80;0.80;;;2.00;99.90;;;;;;4968395;28;20311;-76
2022/12/19 01:38:16;;;;;;;0.70;0.70;;;2.10;99.90;;;;;;4953673;28;20419;-75
2022/12/19 01:40:54;;;;;;;0.70;0.70;;;2.10;99.90;;;;;;4944227;28;20153;-76
2022/12/19 01:43:21;;;;;;;0.70;0.70;;;2.10;99.90;;;;;;4941850;28;20040;-76
2022/12/19 01:46:02;;;;;;;0.80;0.80;;;2.10;99.90;;;;;;4941541;28;20107;-76
2022/12/19 01:48:34;;;;;;;0.80;0.80;;;2.10;99.90;;;;;;4931655;28;20064;-76
2022/12/19 01:51:17;;;;;;;0.80;0.80;;;2.20;99.90;;;;;;4937914;28;20057;-77
2022/12/19 01:53:47;;;;;;;0.70;0.70;;;2.20;99.90;;;;;;4935857;28;20394;-76
2022/12/19 01:56:14;;;;;;;0.70;0.70;;;2.20;99.90;;;;;;4933027;28;20115;-77
2022/12/19 01:58:42;;;;;;;0.77;0.77;;;2.20;99.90;;;;;;4942930;28;20110;-76
2022/12/19 02:01:08;;;;;;;0.80;0.80;;;2.20;99.90;;;;;;4936986;28;20049;-77
2022/12/19 02:03:37;;;;;;;0.70;0.70;;;2.30;99.90;;;;;;4940168;28;20853;-76
2022/12/19 02:06:05;;;;;;;0.80;0.80;;;2.30;99.90;;;;;;4937615;28;20107;-76
2022/12/19 02:08:32;;;;;;;0.70;0.70;;;2.40;99.90;;;;;;4938045;28;20115;-77
2022/12/19 02:10:58;;;;;;;0.70;0.70;;;2.30;99.90;;;;;;4937441;28;20061;-76
2022/12/19 02:13:24;;;;;;;0.70;0.70;;;2.40;99.90;;;;;;4936968;28;20938;-76
2022/12/19 02:15:53;;;;;;;0.70;0.70;;;2.30;99.90;;;;;;4941824;28;20041;-76
2022/12/19 02:18:32;;;;;;;0.70;0.70;;;2.30;99.90;;;;;;4939262;28;20208;-76
2022/12/19 02:21:20;;;;;;;0.70;0.70;;;2.40;99.90;;;;;;4940102;28;20080;-77
2022/12/19 02:24:30;;;;;;;0.70;0.70;;;2.40;99.90;;;;;;4936937;28;20974;-77
2022/12/19 02:27:16;;;;;;;0.70;0.70;;;2.40;99.90;;;;;;4925470;28;20267;-76
2022/12/19 02:30:16;;;;;;;0.70;0.70;;;2.50;99.90;;;;;;4950755;28;20123;-77
2022/12/19 02:32:50;;;;;;;0.77;0.77;;;2.40;99.90;;;;;;4926499;28;20535;-77
2022/12/19 02:35:45;;;;;;;0.70;0.70;;;2.50;99.90;;;;;;4942641;28;20070;-77
2022/12/19 02:38:39;;;;;;;0.70;0.70;;;2.60;99.90;;;;;;4930035;28;20231;-77
2022/12/19 02:41:13;;;;;;;0.70;0.70;;;2.60;99.90;;;;;;4934139;28;20211;-76
2022/12/19 02:43:45;;;;;;;0.70;0.70;;;2.50;99.90;;;;;;4944880;28;21006;-78
2022/12/19 02:46:12;;;;;;;0.70;0.70;;;2.50;99.90;;;;;;4944320;28;20056;-77
2022/12/19 02:48:39;;;;;;;0.70;0.70;;;2.50;99.90;;;;;;4942045;28;20136;-77
2022/12/19 02:51:06;;;;;;;0.70;0.70;;;2.50;99.90;;;;;;4939607;28;20053;-77
2022/12/19 02:53:34;;;;;;;0.70;0.70;;;2.50;99.90;;;;;;4936999;28;20045;-77
2022/12/19 02:56:35;;;;;;;0.70;0.70;;;2.60;99.90;;;;;;4938295;28;20037;-76
2022/12/19 02:59:19;;;;;;;0.70;0.70;;;2.60;99.90;;;;;;4935635;28;20045;-77
2022/12/19 03:02:07;;;;;;;0.70;0.70;;;2.60;99.90;;;;;;4937512;28;20405;-77
2022/12/19 03:05:17;;;;;;;0.70;0.70;;;2.60;99.90;;;;;;4936222;28;20041;-77
2022/12/19 03:07:49;;;;;;;0.70;0.70;;;2.60;99.90;;;;;;4891669;28;20416;-77
2022/12/19 03:10:32;;;;;;;0.70;0.70;;;2.50;99.90;;;;;;4901808;28;21145;-77
2022/12/19 03:13:27;;;;;;;0.70;0.70;;;2.60;99.90;;;;;;4917251;28;20060;-77
2022/12/19 03:15:53;;;;;;;0.70;0.70;;;2.50;99.90;;;;;;4925646;28;20088;-76
2022/12/19 03:18:20;;;;;;;0.70;0.70;;;2.60;99.90;;;;;;4930356;28;20421;-76
2022/12/19 03:21:03;;;;;;;0.70;0.70;;;2.70;99.90;;;;;;4935824;28;20565;-77
2022/12/19 03:23:30;;;;;;;0.70;0.70;;;2.70;99.90;;;;;;4939020;28;20601;-77
2022/12/19 03:26:31;;;;;;;0.70;0.70;;;2.80;99.90;;;;;;4935582;28;20284;-76
2022/12/19 03:29:06;;;;;;;0.70;0.70;;;2.80;99.90;;;;;;4928464;28;20456;-76
2022/12/19 03:31:34;;;;;;;0.70;0.70;;;2.90;99.90;;;;;;4937979;28;20198;-77
2022/12/19 03:34:07;;;;;;;0.70;0.70;;;2.80;99.90;;;;;;4935056;28;20049;-77
2022/12/19 03:36:39;;;;;;;0.70;0.70;;;2.90;99.90;;;;;;4944745;28;20075;-77
2022/12/19 03:39:08;;;;;;;0.70;0.70;;;2.90;99.90;;;;;;4939972;28;20900;-77
2022/12/19 03:44:23;;;;;;;0.70;0.70;;;3.00;99.90;;;;;;4940937;28;20059;-77
2022/12/19 03:47:04;;;;;;;0.70;0.70;;;3.00;99.90;;;;;;4947377;28;20244;-76
2022/12/19 03:49:31;;;;;;;0.70;0.70;;;3.10;99.90;;;;;;4935485;28;20455;-77
2022/12/19 03:52:05;;;;;;;0.70;0.70;;;3.20;99.90;;;;;;4938213;28;20041;-77
2022/12/19 03:54:33;;;;;;;;;;;3.30;99.90;;;;;;4948685;28;20742;-77
2022/12/19 03:57:08;;;;;;;0.70;0.70;;;3.10;99.90;;;;;;4932378;28;20332;-77
2022/12/19 03:59:37;;;;;;;0.70;0.70;;;3.20;99.90;;;;;;4948035;28;20049;-77
2022/12/19 04:02:04;;;;;;;0.70;0.70;;;3.30;99.90;;;;;;4942690;28;20429;-78
2022/12/19 04:04:33;;;;;;;0.60;0.60;;;3.40;99.90;;;;;;4939602;28;20057;-77
2022/12/19 04:07:01;;;;;;;0.70;0.70;;;3.50;99.90;;;;;;4932436;28;20088;-77
2022/12/19 04:09:29;;;;;;;0.70;0.70;;;3.30;99.90;;;;;;4934331;28;20897;-77
2022/12/19 04:12:01;;;;;;;0.70;0.70;;;3.30;99.90;;;;;;4932302;28;20483;-78
2022/12/19 04:14:30;;;;;;;0.75;0.75;;;3.30;99.90;;;;;;4940790;28;20913;-78
2022/12/19 04:17:18;;;;;;;0.70;0.70;;;3.40;99.90;;;;;;4935662;28;20053;-78
2022/12/19 04:19:54;;;;;;;0.70;0.70;;;3.40;99.90;;;;;;4934109;28;20449;-77
2022/12/19 04:22:31;;;;;;;0.70;0.70;;;3.50;99.90;;;;;;4940214;28;20124;-78
2022/12/19 04:24:59;;;;;;;0.68;0.68;;;3.60;99.90;;;;;;4945370;28;20061;-78
2022/12/19 04:27:26;;;;;;;0.70;0.70;;;3.70;99.90;;;;;;4935767;28;20052;-78
2022/12/19 04:29:56;;;;;;;0.70;0.70;;;3.80;99.90;;;;;;4940006;28;20051;-78
2022/12/19 04:32:24;;;;;;;0.70;0.70;;;3.60;99.90;;;;;;4943307;28;20114;-78
2022/12/19 04:34:50;;;;;;;0.70;0.70;;;3.60;99.90;;;;;;4937390;28;20408;-78
2022/12/19 04:37:17;;;;;;;0.70;0.70;;;3.90;99.90;;;;;;4931627;28;20408;-77
2022/12/19 04:39:43;;;;;;;0.70;0.70;;;3.90;99.90;;;;;;4938478;28;20548;-78
2022/12/19 04:42:09;;;;;;;0.70;0.70;;;3.80;99.90;;;;;;4944389;28;20049;-78
2022/12/19 04:44:36;;;;;;;0.60;0.60;;;3.90;99.90;;;;;;4922453;28;20106;-78
2022/12/19 04:47:02;;;;;;;0.60;0.60;;;3.90;99.90;;;;;;4919136;28;20811;-78
2022/12/19 04:49:28;;;;;;;0.60;0.60;;;4.00;99.90;;;;;;4923916;28;20049;-79
2022/12/19 04:51:54;;;;;;;0.60;0.60;;;3.90;99.90;;;;;;4938539;28;20042;-77
2022/12/19 04:54:20;;;;;;;0.70;0.70;;;4.00;99.90;;;;;;4942796;28;20081;-79
2022/12/19 04:56:46;;;;;;;0.70;0.70;;;4.00;99.90;;;;;;4940484;28;20451;-79
2022/12/19 04:59:12;;;;;;;0.60;0.60;;;4.10;99.90;;;;;;4928787;28;20197;-78
2022/12/19 05:01:38;;;;;;;0.70;0.70;;;4.20;99.90;;;;;;4933483;28;20596;-78
2022/12/19 05:04:04;;;;;;;0.60;0.60;;;4.40;99.90;;;;;;4933730;28;20037;-79
2022/12/19 05:06:31;;;;;;;0.60;0.60;;;4.40;99.90;;;;;;4935973;28;20715;-79
2022/12/19 05:08:56;;;;;;;0.63;0.63;;;4.50;99.90;;;;;;4932188;28;20581;-79
2022/12/19 05:11:23;;;;;;;0.70;0.70;;;4.50;99.90;;;;;;4930428;28;20955;-80
2022/12/19 05:13:49;;;;;;;0.70;0.70;;;4.30;99.90;;;;;;4939508;28;20120;-79
2022/12/19 05:16:15;;;;;;;0.70;0.70;;;4.50;99.90;;;;;;4936573;28;20601;-81
2022/12/19 05:18:41;;;;;;;0.70;0.70;;;4.50;99.90;;;;;;4934735;28;20128;-79
2022/12/19 05:21:08;;;;;;;0.70;0.70;;;4.70;99.90;;;;;;4935285;28;20106;-78
2022/12/19 05:23:34;;;;;;;0.70;0.70;;;4.60;99.90;;;;;;4939578;28;20493;-79
2022/12/19 05:26:02;;;;;;;0.70;0.70;;;4.60;99.90;;;;;;4944309;28;20749;-81
2022/12/19 05:28:28;;;;;;;0.70;0.70;;;4.80;99.90;;;;;;4940461;28;20089;-81
2022/12/19 05:31:13;;;;;;;0.60;0.60;;;4.70;99.90;;;;;;4942577;28;20044;-81
2022/12/19 05:33:40;;;;;;;0.60;0.60;;;4.90;99.90;;;;;;4922845;28;20765;-82
2022/12/19 05:36:07;;;;;;;0.70;0.70;;;4.80;99.90;;;;;;4948525;28;20171;-81
2022/12/19 05:38:33;;;;;;;0.65;0.65;;;4.90;99.90;;;;;;4944823;28;20049;-82
2022/12/19 05:41:05;;;;;;;0.60;0.60;;;4.90;99.90;;;;;;4938305;28;20060;-81
2022/12/19 05:43:30;;;;;;;0.60;0.60;;;5.00;99.90;;;;;;4954866;28;20060;-82
2022/12/19 05:45:56;;;;;;;0.70;0.70;;;5.10;99.90;;;;;;4932089;28;20680;-80
2022/12/19 05:48:22;;;;;;;0.70;0.70;;;5.10;99.90;;;;;;4959763;28;20464;-82
2022/12/19 05:50:49;;;;;;;0.65;0.65;;;4.90;99.90;;;;;;4953779;28;20107;-82
2022/12/19 05:53:18;;;;;;;0.63;0.63;;;5.00;99.90;;;;;;4941627;28;20554;-83
2022/12/19 05:55:44;;;;;;;0.70;0.70;;;5.10;99.90;;;;;;4945477;28;20049;-82
2022/12/19 05:58:10;;;;;;;0.70;0.70;;;5.10;99.90;;;;;;4925560;28;20060;-83
2022/12/19 06:00:36;;;;;;;0.70;0.70;;;5.00;99.90;;;;;;4948598;28;20045;-83
2022/12/19 06:03:02;;;;;;;0.70;0.70;;;5.20;99.90;;;;;;4929530;28;20038;-85
2022/12/19 06:05:28;;;;;;;0.70;0.70;;;5.00;99.90;;;;;;4923154;28;20139;-84
2022/12/19 06:07:54;;;;;;;0.70;0.70;;;5.30;99.90;;;;;;4942666;28;20216;-87
2022/12/19 06:10:20;;;;;;;0.60;0.60;;;5.30;99.90;;;;;;4950112;28;20337;-85
2022/12/19 06:12:46;;;;;;;0.63;0.63;;;5.20;99.90;;;;;;4929812;28;20392;-86
2022/12/19 06:15:12;;;;;;;0.70;0.70;;;5.30;99.90;;;;;;4957016;28;20491;-85
2022/12/19 06:17:38;;;;;;;0.70;0.70;;;5.20;99.90;;;;;;4937080;28;20053;-82
2022/12/19 06:20:05;;;;;;;0.70;0.70;;;5.30;99.90;;;;;;4929204;28;20202;-86
2022/12/19 06:22:32;;;;;;;0.65;0.65;;;5.40;99.90;;;;;;4925333;28;20285;-85
2022/12/19 06:24:59;;;;;;;0.65;0.65;;;5.50;99.90;;;;;;4944567;28;20492;-82
2022/12/19 06:27:24;;;;;;;0.70;0.70;;;5.50;99.90;;;;;;4948905;28;20431;-84
2022/12/19 06:29:50;;;;;;;0.70;0.70;;;5.50;99.90;;;;;;4934085;28;20664;-82
2022/12/19 06:32:16;;;;;;;0.68;0.68;;;5.50;99.90;;;;;;4933452;28;20517;-84
2022/12/19 06:34:42;;;;;;;0.70;0.70;;;5.50;99.90;;;;;;4952130;28;20505;-86
2022/12/19 06:37:11;;;;;;;0.60;0.60;;;5.60;99.90;;;;;;4917427;28;20900;-85
2022/12/19 06:39:37;;;;;;;0.70;0.70;;;5.70;99.90;;;;;;4954775;28;20171;-87
2022/12/19 06:42:21;;;;;;;0.70;0.70;;;5.60;99.90;;;;;;4939903;28;21049;-86
2022/12/19 06:44:48;;;;;;;0.70;0.70;;;5.50;99.90;;;;;;4952464;28;20033;-84
2022/12/19 06:47:14;;;;;;;0.70;0.70;;;5.70;99.90;;;;;;4962579;28;20077;-85
2022/12/19 06:49:40;;;;;;;0.70;0.70;;;5.60;99.90;;;;;;4948716;28;20563;-85
2022/12/19 06:52:05;;;;;;;0.70;0.70;;;5.60;99.90;;;;;;4950378;28;20837;-87
2022/12/19 06:54:31;;;;;;;0.70;0.70;;;5.50;99.90;;;;;;4924050;28;20118;-88
2022/12/19 06:57:00;;;;;;;0.70;0.70;;;5.60;99.90;;;;;;4936814;28;20760;-86
2022/12/19 06:59:26;;;;;;;0.70;0.70;;;5.70;99.90;;;;;;4954533;28;20152;-85
2022/12/19 07:02:19;;;;;;;0.60;0.60;;;5.60;99.90;;;;;;4957083;28;20685;-86
2022/12/19 07:04:47;;;;;;;0.60;0.60;;;5.80;99.90;;;;;;4932636;28;20420;-86
2022/12/19 07:07:13;;;;;;;0.60;0.60;;;5.60;99.90;;;;;;4932931;28;20535;-86
2022/12/19 07:09:40;;;;;;;0.60;0.60;;;5.60;99.90;;;;;;4943114;28;20045;-87
2022/12/19 07:12:06;;;;;;;0.70;0.70;;;5.60;99.90;;;;;;4934761;28;20830;-89
2022/12/19 07:14:32;;;;;;;0.60;0.60;;;5.80;99.90;;;;;;4941623;28;20048;-87
2022/12/19 07:17:01;;;;;;;0.60;0.60;;;5.70;99.90;;;;;;4937357;28;20438;-86
2022/12/19 07:19:29;;;;;;;0.70;0.70;;;5.70;99.90;;;;;;4955962;28;20057;-86
2022/12/19 07:21:55;;;;;;;0.70;0.70;;;5.80;99.90;;;;;;4956684;28;20680;-87
2022/12/19 07:24:22;;;;;;;0.60;0.60;;;6.00;99.90;;;;;;4932003;28;20366;-88
2022/12/19 07:26:48;;;;;;;0.68;0.68;;;6.00;99.90;;;;;;4937656;28;20068;-86
2022/12/19 07:29:16;;;;;;;0.60;0.60;;;5.80;99.90;;;;;;4927975;28;20041;-87
2022/12/19 07:31:42;;;;;;;0.60;0.60;;;5.90;99.90;;;;;;4932771;28;20045;-89
2022/12/19 07:34:08;;;;;;;0.65;0.65;;;6.10;99.90;;;;;;4911164;28;20546;-83
2022/12/19 07:36:34;;;;;;;0.77;0.77;;;6.10;99.90;;;;;;4944834;28;20071;-86
2022/12/19 07:39:00;;;;;;;0.70;0.70;;;6.10;99.90;;;;;;4939486;28;20287;-84
2022/12/19 07:41:26;;;;;;;0.60;0.60;;;6.00;99.90;;;;;;4913199;28;20106;-88
2022/12/19 07:43:52;;;;;;;0.60;0.60;;;6.20;99.90;;;;;;4926391;28;20041;-87
2022/12/19 07:46:18;;;;;;;0.60;0.60;;;6.10;99.90;;;;;;4944537;28;20148;-87
2022/12/19 07:48:44;;;;;;;0.65;0.65;;;6.20;99.90;;;;;;4953767;28;20049;-88
2022/12/19 07:51:10;;;;;;;0.70;0.70;;;6.30;99.90;;;;;;4932559;28;20826;-85
2022/12/19 07:53:35;;;;;;;0.70;0.70;;;6.30;99.90;;;;;;4952580;28;20049;-87
2022/12/19 07:56:01;;;;;;;0.60;0.60;;;6.20;99.90;;;;;;4929565;28;20049;-88
2022/12/19 07:58:27;;;;;;;0.60;0.60;;;6.20;99.90;;;;;;4952953;28;20102;-87
2022/12/19 08:00:57;;;;;;;0.60;0.60;;;6.30;99.90;;;;;;4940629;28;20041;-88
2022/12/19 08:03:24;;;;;;;0.70;0.70;;;6.10;99.90;;;;;;4953717;28;20156;-86
2022/12/19 08:05:50;;;;;;;0.60;0.60;;;6.20;99.90;;;;;;4950187;28;20925;-88
2022/12/19 08:08:16;;;;;;;0.60;0.60;;;6.30;99.90;;;;;;4961666;28;20053;-90
2022/12/19 08:10:45;;;;;;;0.60;0.60;;;6.30;99.90;;;;;;4937989;28;20048;-94
2022/12/19 08:13:11;;;;;;;0.60;0.60;;;6.30;99.90;;;;;;4953362;28;20403;-88
2022/12/19 08:15:37;;;;;;;0.60;0.60;;;6.20;99.90;;;;;;4934264;28;20041;-87
2022/12/19 08:18:03;;;;;;;0.60;0.60;;;6.30;99.90;;;;;;4932836;28;20099;-90
2022/12/19 08:20:29;;;;;;;0.60;0.60;;;6.30;99.90;;;;;;4935459;28;20057;-87
2022/12/19 08:22:55;;;;;;;0.60;0.60;;;6.40;99.90;;;;;;4940648;28;20045;-89
2022/12/19 08:25:21;;;;;;;0.68;0.68;;;6.40;99.90;;;;;;4916506;28;20429;-92
2022/12/19 08:27:47;;;;;;;0.60;0.60;;;6.50;99.90;;;;;;4931230;28;20107;-90
2022/12/19 08:30:13;;;;;;;0.60;0.60;;;6.60;99.90;;;;;;4911785;28;20045;-89
2022/12/19 08:32:39;;;;;;;0.63;0.63;;;6.50;99.90;;;;;;4956571;28;21056;-88
2022/12/19 08:35:06;;;;;;;0.60;0.60;;;6.60;99.90;;;;;;4933571;28;20049;-85
2022/12/19 08:37:32;;;;;;;0.60;0.60;;;6.50;99.90;;;;;;4957799;28;20423;-88
2022/12/19 08:40:00;;;;;;;0.60;0.60;;;6.60;99.90;;;;;;4932487;28;20127;-88
2022/12/19 08:42:26;;;;;;;0.70;0.70;;;6.70;99.90;;;;;;4935144;28;20139;-88
2022/12/19 08:44:55;;;;;;;0.63;0.63;;;6.60;99.90;;;;;;4945885;28;20044;-86
2022/12/19 08:47:24;;;;;;;0.60;0.60;;;6.60;99.90;;;;;;4945663;28;20877;-91
2022/12/19 08:49:50;;;;;;;0.60;0.60;;;6.70;99.90;;;;;;4938048;28;20041;-91
2022/12/19 08:52:16;;;;;;;0.60;0.60;;;6.80;99.90;;;;;;4926729;28;20064;-86
2022/12/19 08:54:43;;;;;;;0.60;0.60;;;6.90;99.90;;;;;;4919311;28;20414;-86
2022/12/19 08:57:09;;;;;;;0.60;0.60;;;7.00;99.90;;;;;;4926540;28;20259;-90
2022/12/19 08:59:35;;;;;;;0.70;0.70;;;6.90;99.90;;;;;;4926920;28;20098;-87
2022/12/19 09:02:01;;;;;;;0.60;0.60;;;7.00;99.90;;;;;;4929284;28;20060;-85
2022/12/19 09:04:28;;;;;;;0.60;0.60;;;7.10;99.90;;;;;;4945711;28;20779;-87
2022/12/19 09:06:54;;;;;;;0.60;0.60;;;7.00;99.90;;;;;;4956101;28;20144;-87
2022/12/19 09:09:20;;;;;;;0.60;0.60;;;7.20;99.90;;;;;;4938684;28;20400;-86
2022/12/19 09:11:46;;;;;;;0.60;0.60;;;7.10;99.90;;;;;;4932701;28;20087;-89
2022/12/19 09:14:12;;;;;;;0.60;0.60;;;7.20;99.90;;;;;;4941421;28;20098;-87
2022/12/19 09:16:39;;;;;;;0.60;0.60;;;7.20;99.90;;;;;;4958597;28;20582;-90
2022/12/19 09:19:14;;;;;;;0.60;0.60;;;7.10;99.90;;;;;;4940256;28;20083;-86
2022/12/19 09:21:40;;;;;;;0.60;0.60;;;7.30;99.90;;;;;;4944683;28;20465;-88
2022/12/19 09:24:08;;;;;;;0.60;0.60;;;7.20;99.90;;;;;;4943622;28;20108;-86
2022/12/19 09:26:38;;;;;;;0.60;0.60;;;7.30;99.90;;;;;;4963052;28;20072;-89
2022/12/19 09:29:05;;;;;;;0.60;0.60;;;7.20;99.90;;;;;;4951992;28;20050;-87
2022/12/19 09:31:31;;;;;;;0.60;0.60;;;7.30;99.90;;;;;;4934530;28;20084;-87
2022/12/19 09:33:56;;;;;;;0.60;0.60;;;7.20;99.90;;;;;;4940940;28;20431;-87
2022/12/19 09:36:24;;;;;;;0.65;0.65;;;7.40;99.90;;;;;;4919595;28;20088;-86
2022/12/19 09:38:53;;;;;;;0.60;0.60;;;7.30;99.90;;;;;;4949178;28;20045;-87
2022/12/19 09:41:50;;;;;;;0.60;0.60;;;7.20;99.90;;;;;;4921743;28;20060;-86
2022/12/19 09:45:01;;;;;;;0.60;0.60;;;7.30;99.90;;;;;;4958600;28;20072;-88
2022/12/19 09:47:32;;;;;;;0.60;0.60;;;7.40;99.90;;;;;;4932496;28;20804;-86
2022/12/19 09:50:01;;;;;;;0.60;0.60;;;7.50;99.90;;;;;;4952519;28;20048;-89
2022/12/19 09:52:42;;;;;;;0.60;0.60;;;7.40;99.90;;;;;;4948388;28;20156;-86
2022/12/19 09:55:30;;;;;;;0.60;0.60;;;7.50;99.90;;;;;;4962915;28;20041;-84
2022/12/19 09:58:14;;;;;;;0.60;0.60;;;7.40;99.90;;;;;;4938509;28;20255;-87
2022/12/19 10:00:56;;;;;;;;;;;7.50;99.90;;;;;;4951549;28;20056;-85
2022/12/19 10:03:25;;;;;;;0.60;0.60;;;7.50;99.90;;;;;;4941338;28;20817;-85
2022/12/19 10:06:03;;;;;;;0.60;0.60;;;7.60;99.90;;;;;;4941698;28;20049;-88
2022/12/19 10:08:34;;;;;;;0.60;0.60;;;7.60;99.90;;;;;;4956233;28;20592;-86
2022/12/19 10:11:24;;;;;;;0.60;0.60;;;7.60;99.90;;;;;;4961829;28;20080;-87
2022/12/19 10:14:05;;;;;;;0.60;0.60;;;7.60;99.90;;;;;;4952252;28;20825;-88
2022/12/19 10:16:59;;;;;;;0.60;0.60;;;7.60;99.90;;;;;;4962008;28;20037;-87
2022/12/19 10:19:44;;;;;;;0.60;0.60;;;7.70;99.90;;;;;;4950791;28;20110;-88
2022/12/19 10:22:32;;;;;;;0.60;0.60;;;7.70;99.90;;;;;;4973511;28;20050;-86
2022/12/19 10:25:45;;;;;;;0.60;0.60;;;7.90;99.90;;;;;;4946586;28;20304;-85
2022/12/19 10:28:44;;;;;;;0.60;0.60;;;7.80;99.90;;;;;;4931595;28;20410;-87
2022/12/19 10:31:29;;;;;;;0.60;0.60;;;7.90;99.90;;;;;;4942242;28;20053;-87
2022/12/19 10:33:58;;;;;;;0.70;0.70;;;7.90;99.90;;;;;;4957243;28;20126;-86
2022/12/19 10:36:24;;;;;;;0.60;0.60;;;7.80;99.90;;;;;;4961413;28;20045;-94
2022/12/19 10:39:27;;;;;;;0.60;0.60;;;8.00;99.90;;;;;;4945058;28;20080;-90
2022/12/19 10:41:58;;;;;;;0.60;0.60;;;8.00;99.90;;;;;;4932717;28;20285;-85
2022/12/19 10:44:29;;;;;;;0.60;0.60;;;7.90;99.90;;;;;;4960599;28;20064;-96
2022/12/19 10:46:55;;;;;;;0.60;0.60;;;7.90;99.90;;;;;;4942339;28;20065;-89
2022/12/19 10:49:25;;;;;;;0.60;0.60;;;7.80;99.90;;;;;;4945541;28;20052;-88
2022/12/19 10:51:57;;;;;;;0.60;0.60;;;8.00;99.90;;;;;;4960254;28;20053;-88
2022/12/19 10:54:36;;;;;;;0.60;0.60;;;8.00;99.90;;;;;;4963485;28;20128;-88
2022/12/19 10:57:22;;;;;;;0.70;0.70;;;8.00;99.90;;;;;;4950108;28;20060;-90
2022/12/19 10:59:58;;;;;;;0.70;0.70;;;8.00;99.90;;;;;;4947881;28;20040;-90
2022/12/19 11:02:39;;;;;;;0.63;0.63;;;8.00;99.90;;;;;;4946709;28;20966;-86
2022/12/19 11:05:18;;;;;;;0.60;0.60;;;8.00;99.90;;;;;;4947616;28;20041;-86
2022/12/19 11:08:07;;;;;;;0.60;0.60;;;8.00;99.90;;;;;;4959447;28;21032;-88
2022/12/19 11:10:44;;;;;;;0.60;0.60;;;8.10;99.90;;;;;;4943438;28;20856;-88
2022/12/19 11:13:41;;;;;;;0.70;0.70;;;8.10;99.90;;;;;;4943235;28;20084;-87
2022/12/19 11:16:07;;;;;;;0.60;0.60;;;8.00;99.90;;;;;;4947892;28;20056;-87
2022/12/19 11:18:37;;;;;;;0.60;0.60;;;8.10;99.90;;;;;;4956388;28;20045;-86
2022/12/19 11:21:16;;;;;;;0.60;0.60;;;8.20;99.90;;;;;;4955274;28;20044;-86
2022/12/19 11:23:55;;;;;;;0.60;0.60;;;8.20;99.90;;;;;;4937433;28;20107;-87
2022/12/19 11:26:40;;;;;;;0.68;0.68;;;8.10;99.90;;;;;;4951019;28;20061;-86
2022/12/19 11:29:28;;;;;;;0.60;0.60;;;8.10;99.90;;;;;;4954852;28;20858;-86
2022/12/19 11:31:59;;;;;;;0.60;0.60;;;8.10;99.90;;;;;;4956433;28;20048;-90
2022/12/19 11:34:28;;;;;;;0.70;0.70;;;8.20;99.90;;;;;;4939926;28;20108;-89
2022/12/19 11:37:18;;;;;;;0.60;0.60;;;8.20;99.90;;;;;;4936738;28;20384;-89
2022/12/19 11:39:54;;;;;;;0.60;0.60;;;8.20;99.90;;;;;;4951928;28;20064;-87
2022/12/19 11:42:39;;;;;;;0.60;0.60;;;8.20;99.90;;;;;;4958667;28;20068;-90
2022/12/19 11:45:30;;;;;;;0.60;0.60;;;8.10;99.90;;;;;;4935476;28;20327;-88
2022/12/19 11:48:35;;;;;;;0.60;0.60;;;8.20;99.90;;;;;;4958127;28;20516;-86
2022/12/19 11:51:05;;;;;;;0.65;0.65;;;8.20;99.90;;;;;;4942528;28;20080;-86
2022/12/19 11:53:49;;;;;;;0.68;0.68;;;8.10;99.90;;;;;;4935060;28;20460;-83
2022/12/19 11:56:23;;;;;;;0.60;0.60;;;8.30;99.90;;;;;;4934518;28;20422;-84
2022/12/19 11:59:10;;;;;;;0.60;0.60;;;8.40;99.90;;;;;;4946067;28;20056;-87
2022/12/19 12:01:41;;;;;;;0.60;0.60;;;8.30;99.90;;;;;;4949227;28;20811;-89
2022/12/19 12:04:29;;;;;;;0.60;0.60;;;8.40;99.90;;;;;;4971773;28;20091;-86
2022/12/19 12:06:56;;;;;;;0.60;0.60;;;8.40;99.90;;;;;;4942859;28;20901;-86
2022/12/19 12:09:31;;;;;;;0.60;0.60;;;8.50;99.90;;;;;;4946328;28;20053;-86
2022/12/19 12:12:22;;;;;;;0.60;0.60;;;8.50;99.90;;;;;;4959978;28;20095;-87
2022/12/19 12:15:07;;;;;;;0.60;0.60;;;8.50;99.90;;;;;;4948107;28;20053;-87
2022/12/19 12:17:52;;;;;;;0.60;0.60;;;8.60;99.90;;;;;;4942719;28;20124;-87
2022/12/19 12:20:45;;;;;;;0.60;0.60;;;8.60;99.90;;;;;;4954233;28;20262;-86
2022/12/19 12:23:33;;;;;;;0.60;0.60;;;8.60;99.90;;;;;;4950976;28;20831;-83
2022/12/19 12:26:29;;;;;;;0.60;0.60;;;8.50;99.90;;;;;;4930309;28;20145;-86
2022/12/19 12:29:05;;;;;;;0.60;0.60;;;8.50;99.90;;;;;;4943548;28;20049;-84
2022/12/19 12:31:59;;;;;;;0.60;0.60;;;8.70;99.90;;;;;;4952319;28;20371;-85
2022/12/19 12:35:04;;;;;;;0.60;0.60;;;8.60;99.90;;;;;;4935180;28;20427;-86
2022/12/19 12:37:45;;;;;;;0.60;0.60;;;8.60;99.90;;;;;;4949931;28;20427;-88
2022/12/19 12:40:23;;;;;;;0.60;0.60;;;8.50;99.90;;;;;;4945005;28;20095;-87
2022/12/19 12:43:11;;;;;;;0.60;0.60;;;8.50;99.90;;;;;;4939740;28;20155;-85
2022/12/19 12:45:43;;;;;;;0.60;0.60;;;8.50;99.90;;;;;;4958161;28;20858;-85
2022/12/19 12:48:29;;;;;;;0.60;0.60;;;8.60;99.90;;;;;;4951157;28;20547;-86
2022/12/19 12:50:57;;;;;;;0.60;0.60;;;8.60;99.90;;;;;;4947939;28;20814;-86
2022/12/19 12:53:30;;;;;;;0.60;0.60;;;8.60;99.90;;;;;;4949341;28;20042;-88
2022/12/19 12:55:59;;;;;;;0.60;0.60;;;8.60;99.90;;;;;;4952849;28;20120;-86
2022/12/19 12:58:43;;;;;;;0.60;0.60;;;8.70;99.90;;;;;;4933656;28;20435;-85
2022/12/19 13:01:30;;;;;;;0.60;0.60;;;8.60;99.90;;;;;;4957088;28;20522;-85
2022/12/19 13:04:03;;;;;;;0.60;0.60;;;8.70;99.90;;;;;;4944607;28;20059;-87
2022/12/19 13:06:34;;;;;;;0.60;0.60;;;8.70;99.90;;;;;;4950242;28;20053;-85
2022/12/19 13:09:02;;;;;;;0.60;0.60;;;8.80;99.90;;;;;;4936261;28;20106;-86
2022/12/19 13:14:35;;;;;;;0.60;0.60;;;8.80;99.90;;;;;;4959303;28;20057;-86
2022/12/19 13:17:09;;;;;;;0.60;0.60;;;8.80;99.90;;;;;;4950048;28;20046;-86
2022/12/19 13:19:38;;;;;;;0.60;0.60;;;8.90;99.90;;;;;;4928197;28;20217;-87
2022/12/19 13:22:03;;;;;;;0.50;0.50;;;9.00;99.90;;;;;;4948742;28;20135;-87
2022/12/19 13:24:51;;;;;;;0.60;0.60;;;9.00;99.90;;;;;;4934645;28;20434;-86
2022/12/19 13:27:20;;;;;;;0.60;0.60;;;9.00;99.90;;;;;;4950363;28;20061;-86
2022/12/19 13:30:13;;;;;;;0.60;0.60;;;9.00;99.90;;;;;;4946960;28;20982;-85
2022/12/19 13:32:38;;;;;;;0.57;0.57;;;9.00;99.90;;;;;;4947670;28;20059;-86